.
WxDataArchive / Data Records for 2009-08-06
2009-08-05 August 2009 2009-08-07

Data Records for Thursday, 06 August 2009

Time	Temp	Chill	HIndex	Humid	Dewpt	 Wind 	HiWind	WindDir	Rain 	Barom 
-----	----	-----	------	-----	-----	------	------	-------	-----	----- 
00:00	64.2	64.2	64.2	61	50.5	0	0	---	0.00	30.055 
00:05	64.0	64.0	64.0	62	50.7	0	0	---	0.00	30.055 
00:10	63.9	63.9	63.9	62	50.6	0	0	---	0.00	30.055 
00:15	63.7	63.7	63.7	63	50.9	0	0	---	0.00	30.062 
00:20	63.4	63.4	63.4	64	51.0	0	0	---	0.00	30.062 
00:25	63.2	63.2	63.2	64	50.8	0	0	---	0.00	30.062 
00:30	63.1	63.1	63.1	64	50.7	0	1	315	0.00	30.064 
00:35	63.1	63.1	63.1	64	50.7	0	1	315	0.00	30.064 
00:40	63.1	63.1	63.1	65	51.1	0	0	---	0.00	30.064 
00:45	62.9	62.9	62.9	65	50.9	0	1	315	0.00	30.067 
00:50	62.9	62.9	62.9	65	50.9	0	0	---	0.00	30.067 
00:55	62.7	62.7	62.7	65	50.8	0	0	---	0.00	30.067 
01:00	62.6	62.6	62.6	65	50.7	0	1	315	0.00	30.071 
01:05	62.4	62.4	62.4	65	50.5	0	0	---	0.00	30.071 
01:10	62.4	62.4	62.4	65	50.5	0	0	---	0.00	30.071 
01:15	62.3	62.3	62.3	65	50.4	0	0	---	0.00	30.076 
01:20	62.1	62.1	62.1	65	50.2	0	0	---	0.00	30.076 
01:25	62.0	62.0	62.0	66	50.5	0	0	---	0.00	30.076 
01:30	61.8	61.8	61.8	66	50.3	0	0	---	0.00	30.071 
01:35	61.8	61.8	61.8	66	50.3	0	0	---	0.00	30.071 
01:40	61.5	61.5	61.5	67	50.4	0	0	---	0.00	30.071 
01:45	61.3	61.3	61.3	67	50.2	0	0	---	0.00	30.070 
01:50	61.0	61.0	61.0	68	50.4	0	0	---	0.00	30.070 
01:55	60.7	60.7	60.7	68	50.1	0	0	---	0.00	30.070 
02:00	60.4	60.4	60.4	69	50.2	0	0	---	0.00	30.069 
02:05	60.1	60.1	60.1	69	49.9	0	0	---	0.00	30.069 
02:10	59.8	59.8	59.8	70	50.0	0	0	---	0.00	30.069 
02:15	59.3	59.3	59.3	70	49.5	0	0	---	0.00	30.068 
02:20	59.0	59.0	59.0	71	49.6	0	0	---	0.00	30.068 
02:25	58.7	58.7	58.7	72	49.7	0	0	---	0.00	30.068 
02:30	58.4	58.4	58.4	73	49.8	0	0	---	0.00	30.066 
02:35	58.3	58.3	58.3	74	50.0	0	0	---	0.00	30.066 
02:40	58.0	58.0	58.0	75	50.1	0	0	---	0.00	30.066 
02:45	57.6	57.6	57.6	75	49.7	0	0	---	0.00	30.067 
02:50	57.5	57.5	57.5	76	50.0	0	0	---	0.00	30.067 
02:55	57.2	57.2	57.2	77	50.1	0	0	---	0.00	30.067 
03:00	57.0	57.0	57.0	78	50.2	0	0	---	0.00	30.058 
03:05	56.7	56.7	56.7	78	49.9	0	0	---	0.00	30.058 
03:10	56.6	56.6	56.6	79	50.2	0	0	---	0.00	30.058 
03:15	56.3	56.3	56.3	79	49.9	0	0	---	0.00	30.055 
03:20	56.2	56.2	56.2	80	50.1	0	0	---	0.00	30.055 
03:25	56.0	56.0	56.0	81	50.3	0	0	---	0.00	30.055 
03:30	55.9	55.9	55.9	81	50.2	0	0	---	0.00	30.054 
03:35	55.7	55.7	55.7	81	50.0	0	0	---	0.00	30.054 
03:40	55.6	55.6	55.6	82	50.2	0	0	---	0.00	30.054 
03:45	55.4	55.4	55.4	82	50.0	0	0	---	0.00	30.056 
03:50	55.3	55.3	55.3	83	50.2	0	0	---	0.00	30.056 
03:55	55.1	55.1	55.1	83	50.0	0	0	---	0.00	30.056 
04:00	55.0	55.0	55.0	84	50.3	0	0	---	0.00	30.054 
04:05	54.8	54.8	54.8	84	50.1	0	0	---	0.00	30.054 
04:10	54.8	54.8	54.8	84	50.1	0	0	---	0.00	30.054 
04:15	54.7	54.7	54.7	84	50.0	0	0	---	0.00	30.055 
04:20	54.7	54.7	54.7	85	50.3	0	0	---	0.00	30.055 
04:25	54.7	54.7	54.7	85	50.3	0	0	---	0.00	30.055 
04:30	54.5	54.5	54.5	85	50.1	0	0	---	0.00	30.053 
04:35	54.4	54.4	54.4	85	50.0	0	0	---	0.00	30.053 
04:40	54.4	54.4	54.4	85	50.0	0	0	---	0.00	30.053 
04:45	54.2	54.2	54.2	86	50.1	0	0	---	0.00	30.052 
04:50	54.1	54.1	54.1	86	50.0	0	0	---	0.00	30.052 
04:55	54.1	54.1	54.1	87	50.3	0	0	---	0.00	30.052 
05:00	53.9	53.9	53.9	86	49.8	0	0	---	0.00	30.055 
05:05	53.9	53.9	53.9	86	49.8	0	0	---	0.00	30.055 
05:10	53.8	53.8	53.8	87	50.0	0	0	---	0.00	30.055 
05:15	53.8	53.8	53.8	87	50.0	0	0	---	0.00	30.057 
05:20	53.6	53.6	53.6	87	49.8	0	0	---	0.00	30.057 
05:25	53.5	53.5	53.5	87	49.7	0	0	---	0.00	30.057 
05:30	53.5	53.5	53.5	87	49.7	0	0	---	0.00	30.056 
05:35	53.3	53.3	53.3	88	49.8	0	0	---	0.00	30.056 
05:40	53.3	53.3	53.3	88	49.8	0	0	---	0.00	30.056 
05:45	53.2	53.2	53.2	88	49.7	0	0	---	0.00	30.056 
05:50	53.2	53.2	53.2	88	49.7	0	0	---	0.00	30.056 
05:55	53.2	53.2	53.2	88	49.7	0	0	---	0.00	30.056 
06:00	53.2	53.2	53.2	88	49.7	0	0	---	0.00	30.059 
06:05	53.2	53.2	53.2	89	50.0	0	0	---	0.00	30.059 
06:10	53.2	53.2	53.2	89	50.0	0	0	---	0.00	30.059 
06:15	53.2	53.2	53.2	89	50.0	0	0	---	0.00	30.067 
06:20	53.2	53.2	53.2	89	50.0	0	0	---	0.00	30.067 
06:25	53.2	53.2	53.2	89	50.0	0	0	---	0.00	30.067 
06:30	53.1	53.1	53.1	89	49.9	0	0	---	0.00	30.074 
06:35	53.1	53.1	53.1	89	49.9	0	0	---	0.00	30.074 
06:40	53.1	53.1	53.1	89	49.9	0	0	---	0.00	30.074 
06:45	52.9	52.9	52.9	89	49.7	0	0	---	0.00	30.078 
06:50	52.9	52.9	52.9	89	49.7	0	0	---	0.00	30.078 
06:55	52.9	52.9	52.9	89	49.7	0	0	---	0.00	30.078 
07:00	52.9	52.9	52.9	89	49.7	0	0	---	0.00	30.089 
07:05	52.9	52.9	52.9	89	49.7	0	0	---	0.00	30.089 
07:10	52.9	52.9	52.9	89	49.7	0	0	---	0.00	30.089 
07:15	53.1	53.1	53.1	90	50.2	0	0	---	0.00	30.095 
07:20	53.2	53.2	53.2	89	50.0	0	0	---	0.00	30.095 
07:25	53.3	53.3	53.3	90	50.4	0	0	---	0.00	30.095 
07:30	53.6	53.6	53.6	90	50.7	0	0	---	0.00	30.098 
07:35	53.9	53.9	53.9	90	51.0	0	0	---	0.00	30.098 
07:40	54.4	54.4	54.4	89	51.2	0	0	---	0.00	30.098 
07:45	55.0	55.0	55.0	88	51.5	0	0	---	0.00	30.100 
07:50	55.9	55.9	55.9	85	51.5	0	0	---	0.00	30.100 
07:55	56.7	56.7	56.7	82	51.3	0	0	---	0.00	30.100 
08:00	57.5	57.5	57.5	79	51.0	0	0	---	0.00	30.103 
08:05	58.4	58.4	58.4	76	50.9	0	1	315	0.00	30.103 
08:10	59.2	59.2	59.2	74	50.9	0	0	---	0.00	30.103 
08:15	59.9	59.9	59.9	73	51.2	0	0	---	0.00	30.104 
08:20	60.5	60.5	60.5	72	51.4	0	1	315	0.00	30.104 
08:25	61.2	61.2	61.2	71	51.7	0	0	---	0.00	30.104 
08:30	61.8	61.8	61.8	70	51.9	0	1	315	0.00	30.101 
08:35	62.4	62.4	62.4	69	52.1	0	0	---	0.00	30.101 
08:40	63.1	63.1	63.1	67	52.0	0	1	315	0.00	30.101 
08:45	63.5	63.5	63.5	67	52.3	0	1	315	0.00	30.103 
08:50	63.9	63.9	63.9	65	51.9	0	1	315	0.00	30.103 
08:55	64.3	64.3	64.3	67	53.1	0	1	315	0.00	30.103 
09:00	64.8	64.8	64.8	64	52.3	0	2	315	0.00	30.104 
09:05	65.3	65.3	65.3	62	51.9	0	1	315	0.00	30.104 
09:10	65.8	65.8	65.8	62	52.4	0	1	315	0.00	30.104 
09:15	66.6	66.6	66.6	62	53.2	0	0	---	0.00	30.104 
09:20	67.6	67.6	67.6	57	51.8	0	3	315	0.00	30.104 
09:25	68.6	68.6	68.6	57	52.7	0	2	90	0.00	30.104 
09:30	69.1	69.1	69.1	56	52.7	0	1	90	0.00	30.107 
09:35	69.3	69.3	69.3	56	52.9	0	1	90	0.00	30.107 
09:40	69.9	69.9	69.9	54	52.5	0	1	90	0.00	30.107 
09:45	70.4	70.4	70.4	52	51.9	0	1	90	0.00	30.108 
09:50	70.6	70.6	70.6	51	51.6	0	1	90	0.00	30.108 
09:55	70.6	70.6	70.6	50	51.0	0	1	90	0.00	30.108 
10:00	70.8	70.8	70.8	51	51.8	0	1	90	0.00	30.103 
10:05	71.1	71.1	71.1	53	53.1	0	2	90	0.00	30.103 
10:10	71.1	71.1	71.1	49	51.0	0	1	90	0.00	30.103 
10:15	71.5	71.5	71.5	51	52.4	1	3	90	0.00	30.107 
10:20	71.8	71.8	71.8	48	51.0	0	1	90	0.00	30.107 
10:25	72.0	72.0	72.0	46	50.1	0	2	90	0.00	30.107 
10:30	72.7	72.7	72.7	49	52.4	0	1	90	0.00	30.103 
10:35	73.2	73.2	73.2	46	51.2	0	1	90	0.00	30.103 
10:40	73.3	73.3	73.3	46	51.3	0	2	90	0.00	30.103 
10:45	73.7	73.7	73.7	46	51.6	0	2	90	0.00	30.100 
10:50	74.0	74.0	74.0	47	52.5	0	2	90	0.00	30.100 
10:55	74.9	74.9	74.9	45	52.1	1	3	90	0.00	30.100 
11:00	75.3	75.3	77.7	44	51.9	0	3	90	0.00	30.098 
11:05	75.4	75.4	77.7	43	51.3	1	4	90	0.00	30.098 
11:10	75.1	75.1	77.6	43	51.1	0	2	90	0.00	30.098 
11:15	75.4	75.4	77.7	45	52.6	0	3	90	0.00	30.101 
11:20	76.1	76.1	78.0	43	52.0	1	3	90	0.00	30.101 
11:25	76.0	76.0	77.9	41	50.6	0	2	292	0.00	30.101 
11:30	75.4	75.4	77.7	43	51.3	1	3	315	0.00	30.107 
11:35	75.3	75.3	77.7	44	51.9	0	2	315	0.00	30.107 
11:40	75.1	75.1	77.6	44	51.7	1	3	315	0.00	30.107 
11:45	75.1	75.1	77.6	44	51.7	0	3	22	0.00	30.114 
11:50	75.6	75.6	77.8	43	51.5	0	4	22	0.00	30.114 
11:55	76.1	76.1	78.1	47	54.4	0	1	135	0.00	30.114 
12:00	76.3	76.3	78.0	42	51.5	1	4	248	0.00	30.109 
12:05	75.8	75.8	77.8	43	51.7	1	2	292	0.00	30.109 
12:10	75.8	75.8	77.9	44	52.3	0	1	292	0.00	30.109 
12:15	76.0	76.0	77.9	43	51.9	1	3	315	0.00	30.112 
12:20	76.3	76.3	78.1	44	52.8	1	4	292	0.00	30.112 
12:25	76.7	76.7	78.3	46	54.3	1	4	90	0.00	30.112 
12:30	77.2	77.2	78.5	45	54.2	1	4	90	0.00	30.108 
12:35	77.0	77.0	78.2	39	50.1	1	4	270	0.00	30.108 
12:40	77.2	77.2	78.3	40	51.0	1	2	270	0.00	30.108 
12:45	76.7	76.7	78.3	44	53.1	0	3	270	0.00	30.100 
12:50	76.5	76.5	78.1	41	51.0	1	3	292	0.00	30.100 
12:55	76.5	76.5	78.1	43	52.3	1	2	315	0.00	30.100 
13:00	77.0	77.0	78.4	43	52.8	1	4	22	0.00	30.094 
13:05	77.6	77.6	78.6	42	52.7	0	1	315	0.00	30.094 
13:10	77.9	77.9	78.8	42	52.9	1	3	315	0.00	30.094 
13:15	77.7	77.7	78.6	41	52.1	1	3	22	0.00	30.094 
13:20	77.6	77.6	78.5	39	50.7	1	3	22	0.00	30.094 
13:25	77.4	77.4	78.5	41	51.8	1	4	248	0.00	30.094 
13:30	77.4	77.4	78.4	40	51.2	1	3	270	0.00	30.091 
13:35	77.6	77.6	78.6	42	52.7	0	2	270	0.00	30.091 
13:40	77.7	77.7	78.6	40	51.4	1	3	270	0.00	30.091 
13:45	77.7	77.7	78.6	41	52.1	0	3	45	0.00	30.086 
13:50	77.4	77.4	78.5	42	52.5	1	4	270	0.00	30.086 
13:55	77.7	77.7	78.7	42	52.8	0	3	338	0.00	30.086 
14:00	78.1	78.1	78.8	40	51.8	1	2	0	0.00	30.086 
14:05	77.9	77.9	78.6	39	50.9	0	3	0	0.00	30.086 
14:10	77.7	77.7	78.7	42	52.8	1	3	0	0.00	30.086 
14:15	78.1	78.1	78.7	38	50.4	1	4	315	0.00	30.089 
14:20	77.9	77.9	78.7	41	52.3	0	3	292	0.00	30.089 
14:25	78.1	78.1	78.8	40	51.8	0	2	45	0.00	30.089 
14:30	78.3	78.3	78.8	38	50.6	1	5	315	0.00	30.084 
14:35	77.9	77.9	78.8	42	52.9	0	3	315	0.00	30.084 
14:40	78.1	78.1	78.7	38	50.4	1	3	45	0.00	30.084 
14:45	78.6	78.6	79.0	39	51.5	0	3	338	0.00	30.083 
14:50	79.4	79.4	79.4	38	51.6	1	4	270	0.00	30.083 
14:55	79.6	79.6	79.4	36	50.3	2	5	270	0.00	30.083 
15:00	79.4	79.4	79.3	37	50.8	0	2	270	0.00	30.084 
15:05	79.6	79.6	79.5	38	51.7	1	5	270	0.00	30.084 
15:10	79.4	79.4	79.5	39	52.3	1	4	270	0.00	30.084 
15:15	79.4	79.4	79.4	38	51.6	1	3	270	0.00	30.082 
15:20	79.4	79.4	79.2	36	50.1	1	2	292	0.00	30.082 
15:25	79.6	79.6	79.6	39	52.4	0	2	292	0.00	30.082 
15:30	79.4	79.4	79.4	38	51.6	2	4	292	0.00	30.075 
15:35	79.2	79.2	79.1	36	49.9	2	4	292	0.00	30.075 
15:40	78.8	78.8	79.1	39	51.7	1	3	292	0.00	30.075 
15:45	79.2	79.2	79.3	39	52.1	1	3	338	0.00	30.071 
15:50	79.4	79.4	79.5	39	52.3	1	3	338	0.00	30.071 
15:55	80.1	80.1	80.0	40	53.6	1	4	315	0.00	30.071 
16:00	80.3	80.3	79.9	37	51.6	2	4	315	0.00	30.075 
16:05	80.3	80.3	79.8	36	50.9	1	3	315	0.00	30.075 
16:10	80.3	80.3	79.9	37	51.6	1	3	315	0.00	30.075 
16:15	79.9	79.9	79.7	38	52.0	2	4	270	0.00	30.070 
16:20	80.1	80.1	79.7	36	50.7	1	3	292	0.00	30.070 
16:25	80.1	80.1	79.7	36	50.7	1	3	292	0.00	30.070 
16:30	79.9	79.9	79.6	37	51.3	1	2	270	0.00	30.069 
16:35	79.6	79.6	79.4	37	51.0	2	4	270	0.00	30.069 
16:40	79.4	79.4	79.5	39	52.3	1	3	315	0.00	30.069 
16:45	79.4	79.4	79.4	38	51.6	0	2	315	0.00	30.057 
16:50	79.4	79.4	79.3	37	50.8	2	5	315	0.00	30.057 
16:55	79.4	79.4	79.3	37	50.8	1	4	270	0.00	30.057 
17:00	79.8	79.8	79.6	38	51.9	1	2	270	0.00	30.056 
17:05	79.9	79.9	79.7	38	52.0	1	4	270	0.00	30.056 
17:10	79.9	79.9	79.7	38	52.0	1	3	292	0.00	30.056 
17:15	79.9	79.9	79.6	37	51.3	1	4	270	0.00	30.067 
17:20	79.8	79.8	79.5	36	50.4	1	5	270	0.00	30.067 
17:25	79.6	79.6	79.4	37	51.0	1	5	270	0.00	30.067 
17:30	79.4	79.4	79.3	37	50.8	2	4	270	0.00	30.069 
17:35	79.2	79.2	79.2	37	50.7	2	5	270	0.00	30.069 
17:40	79.0	79.0	79.2	38	51.2	1	3	292	0.00	30.069 
17:45	78.8	78.8	78.9	36	49.6	1	2	292	0.00	30.063 
17:50	79.0	79.0	79.0	36	49.7	1	4	292	0.00	30.063 
17:55	79.4	79.4	79.2	36	50.1	0	2	292	0.00	30.063 
18:00	79.4	79.4	79.2	35	49.3	0	3	315	0.00	30.068 
18:05	79.6	79.6	79.2	34	48.7	1	3	315	0.00	30.068 
18:10	79.4	79.4	79.1	34	48.6	1	3	315	0.00	30.068 
18:15	79.0	79.0	79.1	37	50.5	0	1	315	0.00	30.069 
18:20	79.2	79.2	79.0	34	48.4	0	2	315	0.00	30.069 
18:25	79.2	79.2	78.9	32	46.8	1	3	315	0.00	30.069 
18:30	79.0	79.0	78.8	33	47.4	3	5	270	0.00	30.068 
18:35	78.8	78.8	78.9	36	49.6	1	3	292	0.00	30.068 
18:40	78.8	78.8	78.8	35	48.8	0	2	292	0.00	30.068 
18:45	78.8	78.8	78.8	35	48.8	1	3	315	0.00	30.071 
18:50	78.6	78.6	78.5	32	46.3	2	4	315	0.00	30.071 
18:55	78.3	78.3	78.5	33	46.8	2	4	292	0.00	30.071 
19:00	78.1	78.1	78.3	32	45.8	1	2	270	0.00	30.074 
19:05	78.1	78.1	78.3	32	45.8	0	2	270	0.00	30.074 
19:10	78.1	78.1	78.3	32	45.8	1	4	270	0.00	30.074 
19:15	78.1	78.1	78.4	33	46.6	1	3	292	0.00	30.070 
19:20	78.1	78.1	78.4	34	47.4	0	2	292	0.00	30.070 
19:25	78.3	78.3	78.5	34	47.6	0	1	292	0.00	30.070 
19:30	78.1	78.1	78.4	33	46.6	0	2	292	0.00	30.065 
19:35	77.6	77.6	78.2	34	47.0	1	3	292	0.00	30.065 
19:40	77.2	77.2	78.0	34	46.6	0	2	292	0.00	30.065 
19:45	77.0	77.0	77.9	34	46.5	1	2	292	0.00	30.071 
19:50	76.8	76.8	77.8	34	46.3	1	2	292	0.00	30.071 
19:55	76.8	76.8	77.9	35	47.1	0	1	292	0.00	30.071 
20:00	76.7	76.7	77.9	35	47.0	0	2	292	0.00	30.073 
20:05	76.3	76.3	77.7	36	47.4	0	2	292	0.00	30.073 
20:10	76.1	76.1	77.7	37	47.9	0	1	292	0.00	30.073 
20:15	75.8	75.8	77.6	37	47.7	1	5	270	0.00	30.075 
20:20	75.4	75.4	77.5	38	48.0	0	1	270	0.00	30.075 
20:25	75.3	75.3	77.5	39	48.6	0	2	270	0.00	30.075 
20:30	74.9	74.9	74.9	39	48.3	0	2	270	0.00	30.078 
20:35	74.6	74.6	74.6	39	48.0	0	1	270	0.00	30.078 
20:40	74.2	74.2	74.2	40	48.3	0	1	270	0.00	30.078 
20:45	73.9	73.9	73.9	41	48.7	0	1	270	0.00	30.084 
20:50	73.5	73.5	73.5	42	49.0	0	0	---	0.00	30.084 
20:55	73.2	73.2	73.2	43	49.3	0	1	270	0.00	30.084 
21:00	72.8	72.8	72.8	44	49.6	0	1	270	0.00	30.086 
21:05	72.7	72.7	72.7	44	49.5	0	1	270	0.00	30.086 
21:10	72.3	72.3	72.3	45	49.8	0	1	270	0.00	30.086 
21:15	72.3	72.3	72.3	45	49.8	0	1	270	0.00	30.094 
21:20	72.1	72.1	72.1	45	49.6	0	0	---	0.00	30.094 
21:25	71.8	71.8	71.8	46	49.9	0	1	270	0.00	30.094 
21:30	71.6	71.6	71.6	46	49.7	0	1	270	0.00	30.095 
21:35	71.3	71.3	71.3	47	50.0	0	0	---	0.00	30.095 
21:40	70.9	70.9	70.9	48	50.2	0	0	---	0.00	30.095 
21:45	70.6	70.6	70.6	49	50.5	0	0	---	0.00	30.095 
21:50	70.3	70.3	70.3	49	50.2	0	0	---	0.00	30.095 
21:55	69.9	69.9	69.9	51	50.9	0	0	---	0.00	30.095 
22:00	69.6	69.6	69.6	50	50.1	0	0	---	0.00	30.102 
22:05	69.4	69.4	69.4	51	50.5	0	0	---	0.00	30.102 
22:10	69.1	69.1	69.1	52	50.7	0	0	---	0.00	30.102 
22:15	68.9	68.9	68.9	52	50.5	0	0	---	0.00	30.110 
22:20	68.8	68.8	68.8	52	50.4	0	0	---	0.00	30.110 
22:25	68.4	68.4	68.4	53	50.6	0	0	---	0.00	30.110 
22:30	68.1	68.1	68.1	54	50.8	0	0	---	0.00	30.111 
22:35	67.8	67.8	67.8	55	51.0	0	0	---	0.00	30.111 
22:40	67.3	67.3	67.3	56	51.1	0	0	---	0.00	30.111 
22:45	66.8	66.8	66.8	57	51.1	0	0	---	0.00	30.110 
22:50	66.6	66.6	66.6	58	51.4	0	0	---	0.00	30.110 
22:55	66.6	66.6	66.6	58	51.4	0	0	---	0.00	30.110 
23:00	66.6	66.6	66.6	58	51.4	0	0	---	0.00	30.113 
23:05	66.8	66.8	66.8	58	51.5	0	0	---	0.00	30.113 
23:10	66.8	66.8	66.8	58	51.5	0	0	---	0.00	30.113 
23:15	66.6	66.6	66.6	58	51.4	0	1	270	0.00	30.113 
23:20	66.4	66.4	66.4	58	51.2	0	0	---	0.00	30.113 
23:25	66.4	66.4	66.4	58	51.2	0	1	270	0.00	30.113 
23:30	66.4	66.4	66.4	58	51.2	0	0	---	0.00	30.113 
23:35	66.4	66.4	66.4	58	51.2	0	0	---	0.00	30.113 
23:40	66.3	66.3	66.3	58	51.1	0	0	---	0.00	30.113 
23:45	66.3	66.3	66.3	58	51.1	0	0	---	0.00	30.111 
23:50	66.1	66.1	66.1	59	51.3	0	0	---	0.00	30.111 
23:55	65.8	65.8	65.8	59	51.1	0	0	---	0.00	30.111 

CoCoRaHS
IN-AL-39
A2 Web Hosting
Creative Commons License
GoDaddy
search engine by freefind advanced

loaded 2018-11-17 00:00:32 • last modified 2010-11-18 10:43:29
Privacy PolicyDisclaimer
• wx.awcolley.com is powered by PmWiki v.2002016 •
• all content (unless otherwise noted) © 2018 A W Colley